DAL1145 KDTW-KMYR
Flight info
| Callsign | DAL1145 |
|---|---|
| Flight time | 1h 30m |
| Altitude | 39000 |
| Route | LIDDS4 GRIVY EKN RDU/N0430F380 FAY |
| Aircraft | A319/M-SDE3FGHIRWY/LB1 |
Departure
| Time | 2026-04-22 22:27 |
|---|---|
| Airport | Detroit Metropolitan Wayne County Airport (KDTW) |
Arrival
| Time | 2026-04-22 23:57 |
|---|---|
| Airport | Myrtle Beach International Airport (KMYR) |
| Time | Latitude | Longitude | Altitude | Speed | Heading |
|---|---|---|---|---|---|
| 2026-04-22 22:16 | 42.22466 | -83.34983 | 650 ft | 0 kts | 148° |
| 2026-04-22 22:21 | 42.22469 | -83.34985 | 652 ft | 2 kts | 148° |
| 2026-04-22 22:21 | 42.22484 | -83.34999 | 650 ft | 3 kts | 143° |
| 2026-04-22 22:21 | 42.22500 | -83.35016 | 650 ft | 3 kts | 134° |
| 2026-04-22 22:22 | 42.22513 | -83.35036 | 651 ft | 3 kts | 118° |
| 2026-04-22 22:22 | 42.22519 | -83.35059 | 653 ft | 3 kts | 83° |
| 2026-04-22 22:22 | 42.22516 | -83.35074 | 649 ft | 1 kts | 48° |
| 2026-04-22 22:24 | 42.22517 | -83.35072 | 649 ft | 1 kts | 48° |
| 2026-04-22 22:24 | 42.22543 | -83.35050 | 650 ft | 9 kts | 25° |
| 2026-04-22 22:24 | 42.22634 | -83.35024 | 649 ft | 15 kts | 339° |
| 2026-04-22 22:24 | 42.22712 | -83.35114 | 651 ft | 13 kts | 348° |
| 2026-04-22 22:25 | 42.22807 | -83.35062 | 649 ft | 16 kts | 29° |
| 2026-04-22 22:25 | 42.22904 | -83.34989 | 650 ft | 16 kts | 30° |
| 2026-04-22 22:25 | 42.22983 | -83.34997 | 651 ft | 12 kts | 298° |
| 2026-04-22 22:25 | 42.22992 | -83.35098 | 650 ft | 11 kts | 216° |
| 2026-04-22 22:26 | 42.22983 | -83.35105 | 652 ft | 0 kts | 210° |
| 2026-04-22 22:27 | 42.22983 | -83.35106 | 652 ft | 0 kts | 210° |
| 2026-04-22 22:27 | 42.22756 | -83.35275 | 651 ft | 85 kts | 208° |
| 2026-04-22 22:27 | 42.21984 | -83.35838 | 668 ft | 161 kts | 207° |
| 2026-04-22 22:27 | 42.20969 | -83.36581 | 1341 ft | 169 kts | 207° |
| 2026-04-22 22:28 | 42.19863 | -83.37361 | 1905 ft | 194 kts | 208° |
| 2026-04-22 22:28 | 42.18530 | -83.38239 | 2105 ft | 235 kts | 200° |
| 2026-04-22 22:28 | 42.16816 | -83.38454 | 2656 ft | 259 kts | 177° |
| 2026-04-22 22:28 | 42.15003 | -83.38127 | 3594 ft | 268 kts | 171° |
| 2026-04-22 22:29 | 42.13153 | -83.37631 | 4592 ft | 274 kts | 170° |
| 2026-04-22 22:29 | 42.11273 | -83.37122 | 5626 ft | 278 kts | 171° |
| 2026-04-22 22:29 | 42.09353 | -83.36659 | 6618 ft | 283 kts | 172° |
| 2026-04-22 22:29 | 42.07393 | -83.36222 | 7566 ft | 288 kts | 173° |
| 2026-04-22 22:30 | 42.05473 | -83.35362 | 8471 ft | 298 kts | 152° |
| 2026-04-22 22:30 | 42.03921 | -83.33485 | 9367 ft | 306 kts | 125° |
| 2026-04-22 22:30 | 42.03040 | -83.30919 | 10224 ft | 309 kts | 102° |
| 2026-04-22 22:30 | 42.02622 | -83.27996 | 10744 ft | 328 kts | 98° |
| 2026-04-22 22:31 | 42.02197 | -83.24909 | 11297 ft | 344 kts | 99° |
| 2026-04-22 22:31 | 42.01743 | -83.21720 | 12102 ft | 349 kts | 98° |
| 2026-04-22 22:31 | 42.01462 | -83.18481 | 12969 ft | 350 kts | 88° |
| 2026-04-22 22:31 | 42.01712 | -83.15217 | 13711 ft | 354 kts | 75° |
| 2026-04-22 22:32 | 42.02213 | -83.11961 | 14494 ft | 356 kts | 75° |
| 2026-04-22 22:32 | 42.02696 | -83.08682 | 15264 ft | 359 kts | 75° |
| 2026-04-22 22:32 | 42.03162 | -83.05366 | 15994 ft | 363 kts | 76° |
| 2026-04-22 22:32 | 42.03615 | -83.02001 | 16713 ft | 368 kts | 76° |
| 2026-04-22 22:33 | 42.04065 | -82.98594 | 17427 ft | 372 kts | 76° |
| 2026-04-22 22:33 | 42.04516 | -82.95144 | 18145 ft | 376 kts | 76° |
| 2026-04-22 22:33 | 42.04973 | -82.91655 | 18763 ft | 381 kts | 76° |
| 2026-04-22 22:33 | 42.05434 | -82.88134 | 19391 ft | 384 kts | 76° |
| 2026-04-22 22:34 | 42.05902 | -82.84573 | 20028 ft | 388 kts | 76° |
| 2026-04-22 22:34 | 42.06375 | -82.80984 | 20659 ft | 391 kts | 76° |
| 2026-04-22 22:34 | 42.06848 | -82.77363 | 21299 ft | 395 kts | 77° |
| 2026-04-22 22:34 | 42.07023 | -82.74908 | 21710 ft | 401 kts | 85° |
| 2026-04-22 22:35 | 42.06680 | -82.69861 | 22552 ft | 411 kts | 100° |
| 2026-04-22 22:35 | 42.05982 | -82.66112 | 23178 ft | 415 kts | 102° |
| 2026-04-22 22:35 | 42.05271 | -82.62339 | 23750 ft | 418 kts | 101° |
| 2026-04-22 22:35 | 42.04559 | -82.58530 | 24242 ft | 422 kts | 101° |
| 2026-04-22 22:36 | 42.04084 | -82.55990 | 24585 ft | 424 kts | 101° |
| 2026-04-22 22:36 | 42.03120 | -82.50819 | 25227 ft | 429 kts | 101° |
| 2026-04-22 22:36 | 42.02642 | -82.48235 | 25536 ft | 431 kts | 101° |
| 2026-04-22 22:36 | 42.01924 | -82.44309 | 26000 ft | 434 kts | 100° |
| 2026-04-22 22:37 | 42.00972 | -82.39055 | 26621 ft | 439 kts | 100° |
| 2026-04-22 22:37 | 42.00247 | -82.35052 | 27065 ft | 443 kts | 100° |
| 2026-04-22 22:37 | 41.99752 | -82.32330 | 27353 ft | 445 kts | 100° |
| 2026-04-22 22:37 | 41.98763 | -82.26954 | 27937 ft | 450 kts | 100° |
| 2026-04-22 22:38 | 41.98250 | -82.24192 | 28226 ft | 452 kts | 100° |
| 2026-04-22 22:38 | 41.97484 | -82.20077 | 28641 ft | 455 kts | 100° |
| 2026-04-22 22:38 | 41.96686 | -82.15942 | 29052 ft | 461 kts | 103° |
| 2026-04-22 22:38 | 41.95480 | -82.11914 | 29460 ft | 469 kts | 114° |
| 2026-04-22 22:39 | 41.93764 | -82.08160 | 29869 ft | 476 kts | 124° |
| 2026-04-22 22:39 | 41.91567 | -82.04802 | 30215 ft | 482 kts | 136° |
| 2026-04-22 22:39 | 41.88988 | -82.01916 | 30573 ft | 485 kts | 141° |
| 2026-04-22 22:39 | 41.86362 | -81.99157 | 30917 ft | 487 kts | 141° |
| 2026-04-22 22:40 | 41.83684 | -81.96346 | 31258 ft | 490 kts | 141° |
| 2026-04-22 22:40 | 41.80992 | -81.93524 | 31592 ft | 493 kts | 141° |
| 2026-04-22 22:40 | 41.78284 | -81.90692 | 31914 ft | 495 kts | 141° |
| 2026-04-22 22:40 | 41.75559 | -81.87844 | 32230 ft | 498 kts | 141° |
| 2026-04-22 22:41 | 41.72819 | -81.84980 | 32542 ft | 501 kts | 141° |
| 2026-04-22 22:41 | 41.70074 | -81.82112 | 32968 ft | 500 kts | 142° |
| 2026-04-22 22:41 | 41.67310 | -81.79291 | 33403 ft | 500 kts | 142° |
| 2026-04-22 22:41 | 41.64516 | -81.76528 | 33848 ft | 499 kts | 143° |
| 2026-04-22 22:42 | 41.61703 | -81.73804 | 34251 ft | 499 kts | 144° |
| 2026-04-22 22:42 | 41.58886 | -81.71103 | 34630 ft | 499 kts | 144° |
| 2026-04-22 22:42 | 41.56068 | -81.68400 | 35000 ft | 498 kts | 144° |
| 2026-04-22 22:42 | 41.53259 | -81.65693 | 35361 ft | 498 kts | 143° |
| 2026-04-22 22:43 | 41.50461 | -81.62977 | 35731 ft | 498 kts | 143° |
| 2026-04-22 22:43 | 41.47667 | -81.60252 | 36072 ft | 497 kts | 143° |
| 2026-04-22 22:43 | 41.44878 | -81.57524 | 36411 ft | 497 kts | 143° |
| 2026-04-22 22:43 | 41.42097 | -81.54805 | 36771 ft | 496 kts | 143° |
| 2026-04-22 22:44 | 41.39315 | -81.52095 | 37110 ft | 495 kts | 143° |
| 2026-04-22 22:44 | 41.36528 | -81.49390 | 37438 ft | 495 kts | 143° |
| 2026-04-22 22:44 | 41.33746 | -81.46699 | 37764 ft | 494 kts | 143° |
| 2026-04-22 22:44 | 41.30961 | -81.44010 | 37980 ft | 495 kts | 143° |
| 2026-04-22 22:45 | 41.28191 | -81.41334 | 38017 ft | 490 kts | 143° |
| 2026-04-22 22:45 | 41.22700 | -81.36027 | 38008 ft | 487 kts | 143° |
| 2026-04-22 22:46 | 41.17228 | -81.30752 | 38017 ft | 485 kts | 143° |
| 2026-04-22 22:46 | 41.11759 | -81.25495 | 38013 ft | 486 kts | 143° |
| 2026-04-22 22:47 | 41.06010 | -81.20823 | 38014 ft | 485 kts | 158° |
| 2026-04-22 22:47 | 40.99753 | -81.17487 | 38000 ft | 485 kts | 159° |
| 2026-04-22 22:48 | 40.94554 | -81.14716 | 38008 ft | 484 kts | 159° |
| 2026-04-22 22:48 | 40.87254 | -81.10817 | 38021 ft | 484 kts | 159° |
| 2026-04-22 22:49 | 40.81007 | -81.07499 | 38024 ft | 484 kts | 159° |
| 2026-04-22 22:49 | 40.74762 | -81.04190 | 38024 ft | 483 kts | 159° |
| 2026-04-22 22:50 | 40.68526 | -81.00890 | 38029 ft | 483 kts | 159° |
| 2026-04-22 22:50 | 40.62295 | -80.97600 | 38028 ft | 482 kts | 159° |
| 2026-04-22 22:51 | 40.56064 | -80.94317 | 38027 ft | 482 kts | 159° |
| 2026-04-22 22:51 | 40.49834 | -80.91049 | 38015 ft | 482 kts | 159° |
| 2026-04-22 22:52 | 40.43606 | -80.87778 | 38023 ft | 482 kts | 159° |
| 2026-04-22 22:52 | 40.37378 | -80.84518 | 38016 ft | 482 kts | 159° |
| 2026-04-22 22:53 | 40.31141 | -80.81263 | 38017 ft | 482 kts | 159° |
| 2026-04-22 22:53 | 40.24906 | -80.78016 | 38018 ft | 482 kts | 159° |
| 2026-04-22 22:54 | 40.18671 | -80.74774 | 38015 ft | 482 kts | 159° |
| 2026-04-22 22:54 | 40.12433 | -80.71538 | 38016 ft | 482 kts | 159° |
| 2026-04-22 22:55 | 40.06191 | -80.68303 | 38015 ft | 483 kts | 159° |
| 2026-04-22 22:55 | 39.96819 | -80.63448 | 38018 ft | 483 kts | 159° |
| 2026-04-22 22:56 | 39.90608 | -80.60237 | 38032 ft | 484 kts | 159° |
| 2026-04-22 22:56 | 39.84348 | -80.57016 | 38025 ft | 484 kts | 159° |
| 2026-04-22 22:57 | 39.78080 | -80.53800 | 38029 ft | 484 kts | 159° |
| 2026-04-22 22:57 | 39.71810 | -80.50586 | 38041 ft | 485 kts | 159° |
| 2026-04-22 22:58 | 39.65531 | -80.47373 | 38036 ft | 485 kts | 159° |
| 2026-04-22 22:58 | 39.59254 | -80.44166 | 38032 ft | 485 kts | 159° |
| 2026-04-22 22:59 | 39.52981 | -80.40968 | 38038 ft | 484 kts | 159° |
| 2026-04-22 22:59 | 39.46712 | -80.37775 | 38041 ft | 484 kts | 159° |
| 2026-04-22 23:00 | 39.40445 | -80.34597 | 38044 ft | 484 kts | 159° |
| 2026-04-22 23:00 | 39.34183 | -80.31429 | 38064 ft | 483 kts | 159° |
| 2026-04-22 23:01 | 39.27926 | -80.28264 | 38074 ft | 483 kts | 159° |
| 2026-04-22 23:01 | 39.21677 | -80.25104 | 38076 ft | 482 kts | 159° |
| 2026-04-22 23:02 | 39.15431 | -80.21956 | 38057 ft | 482 kts | 159° |
| 2026-04-22 23:02 | 39.09191 | -80.18819 | 38068 ft | 481 kts | 158° |
| 2026-04-22 23:03 | 39.02958 | -80.15689 | 38106 ft | 481 kts | 158° |
| 2026-04-22 23:03 | 38.96721 | -80.12564 | 38118 ft | 481 kts | 159° |
| 2026-04-22 23:04 | 38.90483 | -80.09455 | 38100 ft | 481 kts | 159° |
| 2026-04-22 23:04 | 38.84194 | -80.06538 | 38114 ft | 480 kts | 161° |
| 2026-04-22 23:05 | 38.77879 | -80.03775 | 38118 ft | 479 kts | 161° |
| 2026-04-22 23:05 | 38.71575 | -80.01000 | 38131 ft | 479 kts | 161° |
| 2026-04-22 23:06 | 38.65283 | -79.98176 | 38130 ft | 479 kts | 161° |
| 2026-04-22 23:06 | 38.59004 | -79.95345 | 38130 ft | 478 kts | 161° |
| 2026-04-22 23:07 | 38.52720 | -79.92536 | 38135 ft | 478 kts | 161° |
| 2026-04-22 23:07 | 38.46439 | -79.89734 | 38135 ft | 478 kts | 161° |
| 2026-04-22 23:08 | 38.40159 | -79.86943 | 38120 ft | 478 kts | 161° |
| 2026-04-22 23:08 | 38.33885 | -79.84154 | 38129 ft | 477 kts | 161° |
| 2026-04-22 23:09 | 38.27615 | -79.81362 | 38133 ft | 477 kts | 161° |
| 2026-04-22 23:09 | 38.21352 | -79.78580 | 38144 ft | 476 kts | 160° |
| 2026-04-22 23:10 | 38.15091 | -79.75810 | 38137 ft | 476 kts | 160° |
| 2026-04-22 23:10 | 38.08835 | -79.73060 | 38141 ft | 476 kts | 160° |
| 2026-04-22 23:11 | 38.02588 | -79.70310 | 38130 ft | 475 kts | 160° |
| 2026-04-22 23:11 | 37.96391 | -79.67565 | 38057 ft | 475 kts | 160° |
| 2026-04-22 23:12 | 37.90151 | -79.64829 | 38035 ft | 474 kts | 160° |
| 2026-04-22 23:12 | 37.83915 | -79.62109 | 38024 ft | 474 kts | 160° |
| 2026-04-22 23:13 | 37.77689 | -79.59381 | 38022 ft | 474 kts | 160° |
| 2026-04-22 23:13 | 37.71464 | -79.56652 | 38029 ft | 474 kts | 160° |
| 2026-04-22 23:14 | 37.65235 | -79.53948 | 38049 ft | 473 kts | 160° |
| 2026-04-22 23:14 | 37.59006 | -79.51237 | 38076 ft | 474 kts | 160° |
| 2026-04-22 23:15 | 37.52776 | -79.48527 | 38115 ft | 474 kts | 160° |
| 2026-04-22 23:15 | 37.46509 | -79.45810 | 38104 ft | 473 kts | 160° |
| 2026-04-22 23:16 | 37.40291 | -79.43121 | 38112 ft | 472 kts | 160° |
| 2026-04-22 23:16 | 37.34074 | -79.40435 | 38128 ft | 473 kts | 160° |
| 2026-04-22 23:17 | 37.27858 | -79.37749 | 38117 ft | 473 kts | 160° |
| 2026-04-22 23:17 | 37.21635 | -79.35077 | 38094 ft | 472 kts | 161° |
| 2026-04-22 23:18 | 37.15419 | -79.32412 | 38112 ft | 472 kts | 161° |
| 2026-04-22 23:18 | 37.09251 | -79.29762 | 38119 ft | 472 kts | 161° |
| 2026-04-22 23:19 | 37.03044 | -79.27108 | 38115 ft | 471 kts | 161° |
| 2026-04-22 23:19 | 36.96843 | -79.24453 | 38102 ft | 470 kts | 161° |
| 2026-04-22 23:20 | 36.90658 | -79.21815 | 38121 ft | 469 kts | 161° |
| 2026-04-22 23:20 | 36.84485 | -79.19188 | 38126 ft | 468 kts | 161° |
| 2026-04-22 23:21 | 36.78322 | -79.16568 | 38129 ft | 468 kts | 161° |
| 2026-04-22 23:21 | 36.73192 | -79.14387 | 37646 ft | 473 kts | 161° |
| 2026-04-22 23:22 | 36.70069 | -79.13059 | 36932 ft | 474 kts | 161° |
| 2026-04-22 23:22 | 36.66951 | -79.11735 | 36352 ft | 473 kts | 161° |
| 2026-04-22 23:22 | 36.63849 | -79.10420 | 35808 ft | 470 kts | 161° |
| 2026-04-22 23:22 | 36.60759 | -79.09113 | 35294 ft | 467 kts | 161° |
| 2026-04-22 23:23 | 36.57688 | -79.07818 | 34788 ft | 465 kts | 161° |
| 2026-04-22 23:23 | 36.54633 | -79.06532 | 34307 ft | 462 kts | 161° |
| 2026-04-22 23:23 | 36.51595 | -79.05249 | 33811 ft | 460 kts | 160° |
| 2026-04-22 23:23 | 36.48575 | -79.03970 | 33269 ft | 457 kts | 160° |
| 2026-04-22 23:24 | 36.45574 | -79.02701 | 32799 ft | 454 kts | 161° |
| 2026-04-22 23:24 | 36.42597 | -79.01445 | 32319 ft | 450 kts | 161° |
| 2026-04-22 23:24 | 36.39641 | -79.00204 | 31855 ft | 447 kts | 161° |
| 2026-04-22 23:24 | 36.36703 | -78.98972 | 31392 ft | 444 kts | 161° |
| 2026-04-22 23:25 | 36.33787 | -78.97747 | 30934 ft | 441 kts | 161° |
| 2026-04-22 23:25 | 36.30893 | -78.96531 | 30500 ft | 438 kts | 161° |
| 2026-04-22 23:25 | 36.28015 | -78.95320 | 30058 ft | 435 kts | 161° |
| 2026-04-22 23:25 | 36.25154 | -78.94118 | 29579 ft | 432 kts | 161° |
| 2026-04-22 23:26 | 36.22318 | -78.92932 | 29138 ft | 428 kts | 161° |
| 2026-04-22 23:26 | 36.19512 | -78.91758 | 28760 ft | 423 kts | 161° |
| 2026-04-22 23:26 | 36.16736 | -78.90600 | 28359 ft | 419 kts | 162° |
| 2026-04-22 23:26 | 36.13983 | -78.89451 | 27949 ft | 416 kts | 162° |
| 2026-04-22 23:27 | 36.11251 | -78.88313 | 27529 ft | 412 kts | 162° |
| 2026-04-22 23:27 | 36.08543 | -78.87185 | 27100 ft | 409 kts | 162° |
| 2026-04-22 23:27 | 36.05861 | -78.86068 | 26698 ft | 406 kts | 162° |
| 2026-04-22 23:27 | 36.03196 | -78.84959 | 26287 ft | 402 kts | 162° |
| 2026-04-22 23:28 | 36.00554 | -78.83858 | 25880 ft | 399 kts | 162° |
| 2026-04-22 23:28 | 35.97934 | -78.82766 | 25472 ft | 396 kts | 163° |
| 2026-04-22 23:28 | 35.95338 | -78.81688 | 25091 ft | 392 kts | 163° |
| 2026-04-22 23:28 | 35.92767 | -78.80622 | 24699 ft | 388 kts | 163° |
| 2026-04-22 23:29 | 35.90205 | -78.79624 | 24288 ft | 384 kts | 167° |
| 2026-04-22 23:29 | 35.87610 | -78.78979 | 23894 ft | 378 kts | 175° |
| 2026-04-22 23:29 | 35.85005 | -78.78719 | 23438 ft | 373 kts | 182° |
| 2026-04-22 23:29 | 35.82433 | -78.78834 | 23097 ft | 368 kts | 188° |
| 2026-04-22 23:30 | 35.79885 | -78.79117 | 23073 ft | 368 kts | 188° |
| 2026-04-22 23:30 | 35.77326 | -78.79388 | 23086 ft | 370 kts | 188° |
| 2026-04-22 23:30 | 35.74797 | -78.79646 | 23080 ft | 369 kts | 188° |
| 2026-04-22 23:30 | 35.72244 | -78.79904 | 22693 ft | 367 kts | 188° |
| 2026-04-22 23:31 | 35.69709 | -78.80162 | 22228 ft | 365 kts | 187° |
| 2026-04-22 23:31 | 35.67189 | -78.80421 | 21778 ft | 363 kts | 187° |
| 2026-04-22 23:31 | 35.64680 | -78.80679 | 21342 ft | 360 kts | 187° |
| 2026-04-22 23:31 | 35.62188 | -78.80937 | 20917 ft | 358 kts | 188° |
| 2026-04-22 23:32 | 35.59712 | -78.81198 | 20505 ft | 357 kts | 188° |
| 2026-04-22 23:32 | 35.57245 | -78.81459 | 20099 ft | 355 kts | 188° |
| 2026-04-22 23:32 | 35.54795 | -78.81716 | 19703 ft | 353 kts | 188° |
| 2026-04-22 23:32 | 35.52356 | -78.81969 | 19316 ft | 351 kts | 188° |
| 2026-04-22 23:33 | 35.49929 | -78.82222 | 18938 ft | 349 kts | 188° |
| 2026-04-22 23:33 | 35.47513 | -78.82473 | 18564 ft | 348 kts | 188° |
| 2026-04-22 23:33 | 35.45109 | -78.82722 | 18169 ft | 346 kts | 188° |
| 2026-04-22 23:33 | 35.42714 | -78.82969 | 17758 ft | 344 kts | 188° |
| 2026-04-22 23:34 | 35.40336 | -78.83214 | 17363 ft | 342 kts | 188° |
| 2026-04-22 23:34 | 35.37971 | -78.83456 | 16976 ft | 340 kts | 188° |
| 2026-04-22 23:34 | 35.35618 | -78.83695 | 16605 ft | 338 kts | 188° |
| 2026-04-22 23:34 | 35.33279 | -78.83933 | 16248 ft | 336 kts | 188° |
| 2026-04-22 23:35 | 35.30955 | -78.84174 | 15897 ft | 334 kts | 188° |
| 2026-04-22 23:35 | 35.28644 | -78.84416 | 15557 ft | 333 kts | 188° |
| 2026-04-22 23:35 | 35.26342 | -78.84655 | 15218 ft | 331 kts | 189° |
| 2026-04-22 23:35 | 35.24055 | -78.84893 | 14888 ft | 329 kts | 189° |
| 2026-04-22 23:36 | 35.21775 | -78.85118 | 14531 ft | 328 kts | 189° |
| 2026-04-22 23:36 | 35.19500 | -78.85333 | 14187 ft | 328 kts | 188° |
| 2026-04-22 23:36 | 35.17227 | -78.85543 | 13857 ft | 327 kts | 188° |
| 2026-04-22 23:36 | 35.14967 | -78.85749 | 13483 ft | 325 kts | 188° |
| 2026-04-22 23:37 | 35.12720 | -78.85953 | 13135 ft | 323 kts | 188° |
| 2026-04-22 23:37 | 35.10491 | -78.86155 | 12788 ft | 320 kts | 188° |
| 2026-04-22 23:37 | 35.08282 | -78.86359 | 12448 ft | 317 kts | 188° |
| 2026-04-22 23:37 | 35.06089 | -78.86563 | 12115 ft | 315 kts | 189° |
| 2026-04-22 23:38 | 35.03914 | -78.86770 | 11783 ft | 312 kts | 189° |
| 2026-04-22 23:38 | 35.01756 | -78.86975 | 11441 ft | 310 kts | 189° |
| 2026-04-22 23:38 | 34.99615 | -78.87178 | 11097 ft | 307 kts | 189° |
| 2026-04-22 23:38 | 34.97489 | -78.87381 | 10904 ft | 306 kts | 189° |
| 2026-04-22 23:39 | 34.95366 | -78.87580 | 10914 ft | 306 kts | 189° |
| 2026-04-22 23:39 | 34.93241 | -78.87775 | 10918 ft | 307 kts | 189° |
| 2026-04-22 23:39 | 34.91111 | -78.87971 | 10918 ft | 307 kts | 189° |
| 2026-04-22 23:39 | 34.88983 | -78.88167 | 10918 ft | 307 kts | 189° |
| 2026-04-22 23:40 | 34.86855 | -78.88365 | 10920 ft | 307 kts | 189° |
| 2026-04-22 23:40 | 34.84725 | -78.88563 | 10918 ft | 307 kts | 189° |
| 2026-04-22 23:40 | 34.82619 | -78.88764 | 10920 ft | 308 kts | 189° |
| 2026-04-22 23:40 | 34.80488 | -78.88967 | 10920 ft | 307 kts | 189° |
| 2026-04-22 23:41 | 34.78359 | -78.89168 | 10920 ft | 307 kts | 189° |
| 2026-04-22 23:41 | 34.76230 | -78.89366 | 10931 ft | 307 kts | 189° |
| 2026-04-22 23:41 | 34.74102 | -78.89566 | 10932 ft | 306 kts | 189° |
| 2026-04-22 23:41 | 34.71965 | -78.89768 | 10935 ft | 310 kts | 188° |
| 2026-04-22 23:42 | 34.69810 | -78.89970 | 10935 ft | 311 kts | 189° |
| 2026-04-22 23:42 | 34.67656 | -78.90170 | 10935 ft | 311 kts | 188° |
| 2026-04-22 23:42 | 34.65497 | -78.90364 | 10936 ft | 311 kts | 188° |
| 2026-04-22 23:42 | 34.63341 | -78.90559 | 10937 ft | 311 kts | 188° |
| 2026-04-22 23:43 | 34.61184 | -78.90759 | 10938 ft | 311 kts | 189° |
| 2026-04-22 23:43 | 34.59028 | -78.90961 | 10937 ft | 311 kts | 189° |
| 2026-04-22 23:43 | 34.56870 | -78.91161 | 10937 ft | 311 kts | 188° |
| 2026-04-22 23:43 | 34.54713 | -78.91357 | 10937 ft | 311 kts | 188° |
| 2026-04-22 23:44 | 34.52554 | -78.91555 | 10939 ft | 311 kts | 189° |
| 2026-04-22 23:44 | 34.50397 | -78.91756 | 10939 ft | 311 kts | 188° |
| 2026-04-22 23:44 | 34.48239 | -78.91957 | 10932 ft | 311 kts | 188° |
| 2026-04-22 23:44 | 34.46094 | -78.92158 | 10744 ft | 308 kts | 188° |
| 2026-04-22 23:45 | 34.43961 | -78.92354 | 10504 ft | 308 kts | 188° |
| 2026-04-22 23:45 | 34.41829 | -78.92549 | 10153 ft | 306 kts | 188° |
| 2026-04-22 23:45 | 34.39712 | -78.92743 | 9775 ft | 305 kts | 188° |
| 2026-04-22 23:45 | 34.37603 | -78.92939 | 9388 ft | 303 kts | 189° |
| 2026-04-22 23:46 | 34.35516 | -78.93132 | 9000 ft | 300 kts | 188° |
| 2026-04-22 23:46 | 34.33448 | -78.93320 | 8626 ft | 297 kts | 189° |
| 2026-04-22 23:46 | 34.31401 | -78.93506 | 8248 ft | 293 kts | 188° |
| 2026-04-22 23:46 | 34.29381 | -78.93693 | 7879 ft | 290 kts | 188° |
| 2026-04-22 23:47 | 34.27384 | -78.93877 | 7506 ft | 286 kts | 188° |
| 2026-04-22 23:47 | 34.25413 | -78.94056 | 7141 ft | 282 kts | 188° |
| 2026-04-22 23:47 | 34.23466 | -78.94233 | 6779 ft | 279 kts | 189° |
| 2026-04-22 23:47 | 34.21538 | -78.94410 | 6416 ft | 277 kts | 188° |
| 2026-04-22 23:48 | 34.19622 | -78.94588 | 6072 ft | 275 kts | 188° |
| 2026-04-22 23:48 | 34.17723 | -78.94765 | 5746 ft | 272 kts | 188° |
| 2026-04-22 23:48 | 34.15868 | -78.94937 | 5427 ft | 270 kts | 188° |
| 2026-04-22 23:48 | 34.14004 | -78.95110 | 5105 ft | 267 kts | 188° |
| 2026-04-22 23:49 | 34.12135 | -78.95285 | 4792 ft | 265 kts | 188° |
| 2026-04-22 23:49 | 34.10306 | -78.95454 | 4461 ft | 262 kts | 188° |
| 2026-04-22 23:49 | 34.08494 | -78.95621 | 4132 ft | 260 kts | 188° |
| 2026-04-22 23:49 | 34.06726 | -78.95783 | 3815 ft | 256 kts | 188° |
| 2026-04-22 23:50 | 34.04975 | -78.95941 | 3525 ft | 249 kts | 188° |
| 2026-04-22 23:50 | 34.03280 | -78.96093 | 3300 ft | 240 kts | 188° |
| 2026-04-22 23:50 | 34.01654 | -78.96239 | 3129 ft | 229 kts | 188° |
| 2026-04-22 23:50 | 34.00098 | -78.96381 | 2955 ft | 220 kts | 188° |
| 2026-04-22 23:51 | 33.98601 | -78.96518 | 2774 ft | 212 kts | 188° |
| 2026-04-22 23:51 | 33.97164 | -78.96650 | 2644 ft | 203 kts | 189° |
| 2026-04-22 23:51 | 33.95769 | -78.96779 | 2518 ft | 199 kts | 189° |
| 2026-04-22 23:51 | 33.94403 | -78.96906 | 2396 ft | 196 kts | 190° |
| 2026-04-22 23:52 | 33.93036 | -78.97032 | 2277 ft | 198 kts | 189° |
| 2026-04-22 23:52 | 33.91674 | -78.97156 | 2153 ft | 195 kts | 188° |
| 2026-04-22 23:52 | 33.90316 | -78.97281 | 2062 ft | 196 kts | 187° |
| 2026-04-22 23:52 | 33.88964 | -78.97405 | 1982 ft | 192 kts | 188° |
| 2026-04-22 23:53 | 33.87618 | -78.97522 | 1981 ft | 194 kts | 186° |
| 2026-04-22 23:53 | 33.86317 | -78.97376 | 1982 ft | 182 kts | 175° |
| 2026-04-22 23:53 | 33.85098 | -78.97103 | 2010 ft | 176 kts | 174° |
| 2026-04-22 23:53 | 33.83896 | -78.96812 | 2000 ft | 175 kts | 172° |
| 2026-04-22 23:54 | 33.82704 | -78.96517 | 1990 ft | 174 kts | 173° |
| 2026-04-22 23:54 | 33.81517 | -78.96220 | 1984 ft | 175 kts | 174° |
| 2026-04-22 23:54 | 33.80328 | -78.95923 | 1982 ft | 175 kts | 174° |
| 2026-04-22 23:54 | 33.79137 | -78.95624 | 1921 ft | 174 kts | 173° |
| 2026-04-22 23:55 | 33.77956 | -78.95329 | 1733 ft | 173 kts | 172° |
| 2026-04-22 23:55 | 33.76777 | -78.95034 | 1525 ft | 173 kts | 173° |
| 2026-04-22 23:55 | 33.75606 | -78.94741 | 1307 ft | 171 kts | 173° |
| 2026-04-22 23:55 | 33.74448 | -78.94451 | 1108 ft | 169 kts | 172° |
| 2026-04-22 23:56 | 33.73331 | -78.94171 | 888 ft | 156 kts | 171° |
| 2026-04-22 23:56 | 33.72356 | -78.93925 | 688 ft | 131 kts | 173° |
| 2026-04-22 23:56 | 33.71515 | -78.93709 | 483 ft | 117 kts | 173° |
| 2026-04-22 23:56 | 33.70725 | -78.93502 | 277 ft | 116 kts | 174° |
| 2026-04-22 23:57 | 33.69917 | -78.93313 | 173 ft | 119 kts | 174° |
| 2026-04-22 23:57 | 33.69103 | -78.93114 | 56 ft | 119 kts | 173° |
| 2026-04-22 23:57 | 33.68382 | -78.92936 | 31 ft | 77 kts | 167° |
| 2026-04-22 23:57 | 33.68128 | -78.92839 | 31 ft | 18 kts | 97° |
| 2026-04-22 23:58 | 33.68158 | -78.92719 | 32 ft | 14 kts | 77° |
| 2026-04-22 23:58 | 33.68179 | -78.92613 | 33 ft | 11 kts | 124° |
| 2026-04-22 23:58 | 33.68117 | -78.92554 | 32 ft | 12 kts | 109° |
| 2026-04-22 23:58 | 33.68076 | -78.92483 | 32 ft | 10 kts | 144° |
| 2026-04-22 23:59 | 33.68060 | -78.92469 | 32 ft | 0 kts | 147° |